Time;durP1;ratioP1;P1;durP2;ratioP2;P2;SDS_P1;SDS_P2;PMS_P1;PMS_P2;Temp;Humidity;BMP_temperature;BMP_pressure;BME280_temperature;BME280_humidity;BME280_pressure;Samples;Min_cycle;Max_cycle;Signal;HPM_P1;HPM_P2
2022/10/07 00:02:07;;;;;;;;;;;8.90;79.90;;;;;;5041884;28;19987;-64
2022/10/07 00:04:36;;;;;;;;;;;8.90;80.10;;;;;;5045853;28;19929;-65
2022/10/07 00:07:03;;;;;;;;;;;8.90;80.10;;;;;;5044196;28;19948;-65
2022/10/07 00:09:29;;;;;;;;;;;9.00;80.00;;;;;;5045945;28;19929;-66
2022/10/07 00:11:56;;;;;;;;;;;9.00;79.80;;;;;;5042864;28;19960;-65
2022/10/07 00:14:23;;;;;;;;;;;8.90;79.90;;;;;;5042808;28;19933;-66
2022/10/07 00:16:49;;;;;;;;;;;8.90;79.90;;;;;;5046321;28;20305;-65
2022/10/07 00:19:16;;;;;;;;;;;8.90;79.80;;;;;;5044716;28;19929;-65
2022/10/07 00:21:44;;;;;;;;;;;8.80;79.80;;;;;;5037763;28;19948;-66
2022/10/07 00:24:11;;;;;;;;;;;8.70;80.00;;;;;;5044740;28;19929;-66
2022/10/07 00:26:37;;;;;;;;;;;8.70;80.00;;;;;;5037515;28;20801;-64
2022/10/07 00:29:05;;;;;;;;;;;8.70;80.30;;;;;;5029484;28;20418;-65
2022/10/07 00:31:32;;;;;;;;;;;8.70;80.20;;;;;;5039748;28;20474;-66
2022/10/07 00:34:01;;;;;;;;;;;8.60;80.30;;;;;;5017489;28;20370;-64
2022/10/07 00:36:29;;;;;;;;;;;8.60;80.20;;;;;;5037827;28;20379;-65
2022/10/07 00:38:58;;;;;;;;;;;8.60;80.20;;;;;;5032667;28;19933;-64
2022/10/07 00:41:26;;;;;;;;;;;8.60;80.30;;;;;;5023233;28;20478;-67
2022/10/07 00:43:53;;;;;;;;;;;8.60;80.10;;;;;;5021493;28;19932;-64
2022/10/07 00:46:25;;;;;;;;;;;8.60;80.30;;;;;;5024089;28;19953;-65
2022/10/07 00:48:53;;;;;;;;;;;8.60;80.10;;;;;;5021052;28;19941;-65
2022/10/07 00:51:20;;;;;;;;;;;8.70;80.00;;;;;;5040927;28;20458;-65
2022/10/07 00:56:43;;;;;;;;;;;8.60;80.00;;;;;;5011055;28;19929;-66
2022/10/07 00:59:10;;;;;;;;;;;8.60;80.00;;;;;;5011484;28;19964;-68
2022/10/07 01:01:40;;;;;;;;;;;8.50;80.10;;;;;;5040683;28;20850;-66
2022/10/07 01:04:10;;;;;;;;;;;8.60;80.00;;;;;;5021567;28;19928;-66
2022/10/07 01:06:38;;;;;;;;;;;8.50;79.90;;;;;;5041523;28;19925;-65
2022/10/07 01:09:05;;;;;;;;;;;8.50;79.90;;;;;;5038641;28;20329;-64
2022/10/07 01:11:40;;;;;;;;;;;8.50;79.90;;;;;;5038709;28;19936;-66
2022/10/07 01:14:10;;;;;;;;;;;8.40;80.00;;;;;;5037922;28;20027;-67
2022/10/07 01:16:41;;;;;;;;;;;8.30;80.10;;;;;;5039721;28;19933;-66
2022/10/07 01:19:18;;;;;;;;;;;8.30;80.30;;;;;;5019336;28;19950;-67
2022/10/07 01:21:54;;;;;;;;;;;8.30;80.40;;;;;;5041972;28;19932;-65
2022/10/07 01:24:25;;;;;;;;;;;8.30;80.40;;;;;;5034503;28;20422;-65
2022/10/07 01:26:56;;;;;;;;;;;8.40;80.10;;;;;;5034792;28;19933;-67
2022/10/07 01:29:26;;;;;;;;;;;8.30;80.00;;;;;;5032757;28;19937;-66
2022/10/07 01:31:56;;;;;;;;;;;8.30;79.90;;;;;;5036694;28;19933;-66
2022/10/07 01:34:25;;;;;;;;;;;8.20;79.80;;;;;;5036754;28;19925;-64
2022/10/07 01:36:53;;;;;;;;;;;8.20;79.80;;;;;;5019251;28;19933;-66
2022/10/07 01:39:23;;;;;;;;;;;8.20;79.70;;;;;;5025120;28;19944;-66
2022/10/07 01:41:50;;;;;;;;;;;8.10;79.90;;;;;;5035089;28;20424;-67
2022/10/07 01:44:19;;;;;;;;;;;8.10;79.80;;;;;;5025456;28;20382;-66
2022/10/07 01:46:46;;;;;;;;;;;8.10;79.90;;;;;;5046525;28;19928;-65
2022/10/07 01:49:13;;;;;;;;;;;8.00;79.90;;;;;;5030560;28;20058;-65
2022/10/07 01:51:47;;;;;;;;;;;8.00;79.80;;;;;;5047971;28;20013;-66
2022/10/07 01:54:21;;;;;;;;;;;7.90;79.90;;;;;;5034670;28;20298;-65
2022/10/07 01:57:05;;;;;;;;;;;7.90;80.10;;;;;;5046566;28;19978;-65
2022/10/07 01:59:46;;;;;;;;;;;7.90;79.90;;;;;;5028459;28;19925;-66
2022/10/07 02:02:17;;;;;;;;;;;7.90;80.10;;;;;;5039334;28;20013;-65
2022/10/07 02:04:49;;;;;;;;;;;7.80;80.10;;;;;;5038560;28;19983;-65
2022/10/07 02:07:23;;;;;;;;;;;7.80;80.00;;;;;;5028815;28;20571;-65
2022/10/07 02:09:55;;;;;;;;;;;7.80;79.80;;;;;;5035410;28;20397;-65
2022/10/07 02:12:23;;;;;;;;;;;7.90;79.60;;;;;;5032498;28;19924;-65
2022/10/07 02:14:55;;;;;;;;;;;7.80;79.50;;;;;;5044522;28;19948;-66
2022/10/07 02:17:25;;;;;;;;;;;7.70;79.70;;;;;;5025965;28;19941;-63
2022/10/07 02:19:55;;;;;;;;;;;7.70;79.90;;;;;;5016694;28;19933;-65
2022/10/07 02:22:25;;;;;;;;;;;7.70;79.80;;;;;;5043063;28;19925;-66
2022/10/07 02:24:54;;;;;;;;;;;7.70;79.90;;;;;;5018487;28;19929;-66
2022/10/07 02:27:24;;;;;;;;;;;7.70;79.90;;;;;;5025112;28;20006;-64
2022/10/07 02:29:57;;;;;;;;;;;7.70;79.80;;;;;;5030251;28;20405;-67
2022/10/07 02:32:25;;;;;;;;;;;7.60;80.00;;;;;;5045092;28;19925;-65
2022/10/07 02:34:55;;;;;;;;;;;7.50;80.10;;;;;;5046088;28;19929;-67
2022/10/07 02:37:26;;;;;;;;;;;7.60;79.90;;;;;;5031629;28;19952;-64
2022/10/07 02:39:54;;;;;;;;;;;7.50;79.90;;;;;;5018635;28;19925;-66
2022/10/07 02:42:26;;;;;;;;;;;7.50;80.00;;;;;;5035150;28;19928;-64
2022/10/07 02:44:55;;;;;;;;;;;7.50;80.00;;;;;;5027982;28;19936;-66
2022/10/07 02:47:27;;;;;;;;;;;7.50;79.80;;;;;;5043843;28;19928;-66
2022/10/07 02:49:59;;;;;;;;;;;7.60;79.80;;;;;;5048980;28;19924;-66
2022/10/07 02:52:29;;;;;;;;;;;7.50;79.70;;;;;;5006903;28;20306;-65
2022/10/07 02:54:58;;;;;;;;;;;7.50;79.90;;;;;;5029160;28;19931;-65
2022/10/07 02:57:28;;;;;;;;;;;7.50;79.70;;;;;;5033940;28;20272;-64
2022/10/07 02:59:57;;;;;;;;;;;7.50;79.60;;;;;;5038923;28;19955;-65
2022/10/07 03:02:27;;;;;;;;;;;7.40;79.60;;;;;;5022112;28;19932;-64
2022/10/07 03:04:56;;;;;;;;;;;7.50;79.50;;;;;;5047555;28;19925;-67
2022/10/07 03:07:23;;;;;;;;;;;7.40;79.60;;;;;;5038414;28;19932;-66
2022/10/07 03:09:50;;;;;;;;;;;7.40;79.70;;;;;;5016814;28;19940;-64
2022/10/07 03:12:17;;;;;;;;;;;7.40;80.00;;;;;;5036133;28;19978;-65
2022/10/07 03:14:44;;;;;;;;;;;7.40;80.10;;;;;;5026371;28;19964;-66
2022/10/07 03:17:11;;;;;;;;;;;7.30;80.00;;;;;;5011560;28;20400;-65
2022/10/07 03:19:39;;;;;;;;;;;7.30;80.20;;;;;;5037901;28;19928;-65
2022/10/07 03:22:07;;;;;;;;;;;7.20;80.30;;;;;;5037869;28;19925;-66
2022/10/07 03:24:36;;;;;;;;;;;7.20;80.40;;;;;;5019125;28;19929;-66
2022/10/07 03:27:06;;;;;;;;;;;7.20;80.40;;;;;;5024530;28;19931;-66
2022/10/07 03:29:33;;;;;;;;;;;7.20;80.30;;;;;;5036286;28;20032;-65
2022/10/07 03:32:01;;;;;;;;;;;7.20;80.30;;;;;;5026424;28;19929;-66
2022/10/07 03:34:29;;;;;;;;;;;7.20;80.30;;;;;;5019478;28;20052;-65
2022/10/07 03:36:57;;;;;;;;;;;7.20;80.20;;;;;;5005127;28;19933;-65
2022/10/07 03:39:24;;;;;;;;;;;7.10;80.30;;;;;;5016879;28;20881;-66
2022/10/07 03:41:51;;;;;;;;;;;7.20;80.30;;;;;;5022975;28;19925;-65
2022/10/07 03:44:19;;;;;;;;;;;7.10;80.30;;;;;;5025043;28;20359;-65
2022/10/07 03:46:48;;;;;;;;;;;7.10;80.20;;;;;;4996402;28;19929;-65
2022/10/07 03:49:16;;;;;;;;;;;7.10;80.40;;;;;;5010482;28;19947;-64
2022/10/07 03:51:45;;;;;;;;;;;7.10;80.30;;;;;;5037461;28;19925;-63
2022/10/07 03:54:13;;;;;;;;;;;7.20;80.30;;;;;;5036755;28;19968;-64
2022/10/07 03:56:40;;;;;;;;;;;7.10;80.20;;;;;;5039416;28;19928;-65
2022/10/07 03:59:06;;;;;;;;;;;7.10;80.30;;;;;;5020073;28;19937;-66
2022/10/07 04:01:34;;;;;;;;;;;7.00;80.30;;;;;;5027713;28;19931;-66
2022/10/07 04:04:01;;;;;;;;;;;7.00;80.50;;;;;;5017784;28;20390;-64
2022/10/07 04:06:31;;;;;;;;;;;7.00;80.40;;;;;;5040703;28;19925;-65
2022/10/07 04:09:02;;;;;;;;;;;7.00;80.60;;;;;;5020310;28;19986;-65
2022/10/07 04:11:30;;;;;;;;;;;7.00;80.60;;;;;;5021150;28;20023;-65
2022/10/07 04:13:59;;;;;;;;;;;7.00;80.60;;;;;;5025058;28;19935;-65
2022/10/07 04:16:27;;;;;;;;;;;7.00;80.80;;;;;;5022044;28;19925;-65
2022/10/07 04:18:56;;;;;;;;;;;7.00;80.90;;;;;;5023385;28;19960;-64
2022/10/07 04:21:24;;;;;;;;;;;7.10;81.00;;;;;;5019996;28;19925;-66
2022/10/07 04:23:50;;;;;;;;;;;7.00;81.00;;;;;;5044370;28;19940;-64
2022/10/07 04:26:17;;;;;;;;;;;7.00;81.00;;;;;;5039172;28;19929;-65
2022/10/07 04:28:49;;;;;;;;;;;7.10;80.90;;;;;;5035610;28;19974;-65
2022/10/07 04:31:21;;;;;;;;;;;7.10;81.00;;;;;;5039590;28;20367;-66
2022/10/07 04:33:54;;;;;;;;;;;7.10;81.00;;;;;;5026418;28;20298;-65
2022/10/07 04:36:26;;;;;;;;;;;7.10;80.90;;;;;;5030611;28;20445;-66
2022/10/07 04:39:01;;;;;;;;;;;7.10;81.10;;;;;;5035184;28;19962;-64
2022/10/07 04:41:33;;;;;;;;;;;7.10;81.30;;;;;;5024186;28;19924;-66
2022/10/07 04:44:02;;;;;;;;;;;7.10;81.30;;;;;;5036977;28;20016;-67
2022/10/07 04:46:35;;;;;;;;;;;7.10;81.40;;;;;;5015726;28;19975;-65
2022/10/07 04:49:09;;;;;;;;;;;7.10;81.30;;;;;;5024327;28;19928;-64
2022/10/07 04:51:39;;;;;;;;;;;7.10;81.40;;;;;;5046232;28;19925;-65
2022/10/07 04:54:07;;;;;;;;;;;7.00;81.20;;;;;;5027172;28;19936;-66
2022/10/07 04:56:42;;;;;;;;;;;7.10;81.30;;;;;;5030123;28;20412;-65
2022/10/07 04:59:13;;;;;;;;;;;7.00;81.40;;;;;;5040415;28;19960;-64
2022/10/07 05:01:41;;;;;;;;;;;7.00;81.30;;;;;;5032327;28;19935;-66
2022/10/07 05:04:10;;;;;;;;;;;6.90;81.30;;;;;;5038788;28;20300;-64
2022/10/07 05:06:37;;;;;;;;;;;6.90;81.00;;;;;;5019290;28;19925;-65
2022/10/07 05:09:06;;;;;;;;;;;6.90;81.00;;;;;;5025867;28;20398;-65
2022/10/07 05:11:37;;;;;;;;;;;6.90;81.00;;;;;;5023881;28;20028;-66
2022/10/07 05:14:09;;;;;;;;;;;6.90;81.00;;;;;;5019306;28;19935;-65
2022/10/07 05:16:38;;;;;;;;;;;6.90;81.20;;;;;;5032111;28;20389;-65
2022/10/07 05:19:05;;;;;;;;;;;6.90;81.20;;;;;;5019426;28;19956;-66
2022/10/07 05:21:33;;;;;;;;;;;6.90;81.30;;;;;;5028483;28;19929;-64
2022/10/07 05:24:00;;;;;;;;;;;6.90;81.30;;;;;;5013629;28;20389;-66
2022/10/07 05:26:33;;;;;;;;;;;6.90;81.30;;;;;;5030839;28;19932;-66
2022/10/07 05:29:02;;;;;;;;;;;6.90;81.30;;;;;;5033120;28;19924;-65
2022/10/07 05:31:37;;;;;;;;;;;6.90;81.20;;;;;;5030267;28;19929;-67
2022/10/07 05:34:05;;;;;;;;;;;6.90;81.40;;;;;;5026888;28;19931;-66
2022/10/07 05:36:33;;;;;;;;;;;6.90;81.50;;;;;;5039236;28;20420;-64
2022/10/07 05:39:00;;;;;;;;;;;7.00;81.80;;;;;;5035534;28;19929;-65
2022/10/07 05:41:38;;;;;;;;;;;7.00;81.70;;;;;;5017338;28;19925;-66
2022/10/07 05:44:04;;;;;;;;;;;7.00;81.70;;;;;;5024807;28;19995;-65
2022/10/07 05:46:31;;;;;;;;;;;7.00;81.80;;;;;;5028066;28;19970;-66
2022/10/07 05:49:00;;;;;;;;;;;7.00;81.80;;;;;;5021637;28;19925;-68
2022/10/07 05:51:32;;;;;;;;;;;7.00;81.50;;;;;;5039383;28;20290;-65
2022/10/07 05:54:00;;;;;;;;;;;7.00;81.60;;;;;;5017315;28;20306;-65
2022/10/07 05:56:35;;;;;;;;;;;7.00;81.70;;;;;;5035471;28;20421;-65
2022/10/07 05:59:03;;;;;;;;;;;7.00;81.80;;;;;;5023568;28;19928;-65
2022/10/07 06:01:30;;;;;;;;;;;7.00;81.90;;;;;;5027079;28;19928;-64
2022/10/07 06:04:02;;;;;;;;;;;7.10;82.00;;;;;;5036547;28;19928;-66
2022/10/07 06:06:32;;;;;;;;;;;7.10;82.10;;;;;;5034122;28;19933;-64
2022/10/07 06:14:29;;;;;;;;;;;7.10;82.60;;;;;;5026976;28;19937;-66
2022/10/07 06:16:56;;;;;;;;;;;7.10;82.60;;;;;;5020411;28;19925;-66
2022/10/07 06:19:24;;;;;;;;;;;7.20;82.70;;;;;;5007979;28;19979;-66
2022/10/07 06:21:56;;;;;;;;;;;7.10;82.50;;;;;;5034845;28;19925;-63
2022/10/07 06:24:23;;;;;;;;;;;7.20;82.60;;;;;;5022164;28;20390;-66
2022/10/07 06:26:50;;;;;;;;;;;7.20;82.20;;;;;;5032153;28;19948;-64
2022/10/07 06:29:16;;;;;;;;;;;7.30;82.40;;;;;;5023040;28;19925;-66
2022/10/07 06:31:45;;;;;;;;;;;7.30;82.40;;;;;;5037745;28;19925;-63
2022/10/07 06:34:12;;;;;;;;;;;7.20;82.60;;;;;;5013738;28;20375;-66
2022/10/07 06:36:41;;;;;;;;;;;7.30;82.50;;;;;;5023277;28;20382;-65
2022/10/07 06:39:09;;;;;;;;;;;7.30;82.50;;;;;;5038627;28;19925;-65
2022/10/07 06:41:40;;;;;;;;;;;7.40;82.60;;;;;;5047108;28;20012;-65
2022/10/07 06:44:37;;;;;;;;;;;7.40;82.60;;;;;;5036127;28;19924;-66
2022/10/07 06:47:05;;;;;;;;;;;7.50;82.60;;;;;;5023471;28;19929;-63
2022/10/07 06:49:32;;;;;;;;;;;7.50;82.70;;;;;;5024674;28;19941;-65
2022/10/07 06:52:00;;;;;;;;;;;7.60;82.80;;;;;;5021377;28;20004;-66
2022/10/07 06:54:27;;;;;;;;;;;7.60;82.60;;;;;;5023123;28;19929;-65
2022/10/07 06:56:57;;;;;;;;;;;7.60;82.60;;;;;;5016656;28;21277;-63
2022/10/07 06:59:24;;;;;;;;;;;7.60;82.70;;;;;;5028474;28;19932;-64
2022/10/07 07:02:00;;;;;;;;;;;7.70;82.70;;;;;;5012679;28;19932;-65
2022/10/07 07:04:29;;;;;;;;;;;7.70;82.90;;;;;;5027070;28;19929;-65
2022/10/07 07:06:56;;;;;;;;;;;7.70;83.10;;;;;;5032166;28;20283;-64
2022/10/07 07:09:25;;;;;;;;;;;7.80;83.10;;;;;;5026368;28;19952;-66
2022/10/07 07:11:53;;;;;;;;;;;7.80;83.10;;;;;;5024679;28;19937;-66
2022/10/07 07:14:24;;;;;;;;;;;7.90;83.20;;;;;;5017543;28;19929;-65
2022/10/07 07:17:00;;;;;;;;;;;7.90;83.00;;;;;;5026169;28;19929;-66
2022/10/07 07:19:28;;;;;;;;;;;7.90;82.70;;;;;;5019337;28;20424;-66
2022/10/07 07:21:56;;;;;;;;;;;7.90;82.50;;;;;;5020243;28;19929;-66
2022/10/07 07:24:26;;;;;;;;;;;7.90;83.20;;;;;;5018218;28;20000;-65
2022/10/07 07:26:53;;;;;;;;;;;7.90;83.20;;;;;;5038715;28;19964;-65
2022/10/07 07:29:24;;;;;;;;;;;8.00;83.60;;;;;;5010586;28;19968;-66
2022/10/07 07:31:55;;;;;;;;;;;8.00;83.70;;;;;;5021249;28;19935;-66
2022/10/07 07:34:25;;;;;;;;;;;8.10;83.80;;;;;;5032222;28;25867;-64
2022/10/07 07:36:52;;;;;;;;;;;8.10;84.00;;;;;;5017439;28;20347;-65
2022/10/07 07:39:21;;;;;;;;;;;8.10;83.00;;;;;;5029814;28;19925;-64
2022/10/07 07:41:56;;;;;;;;;;;8.10;83.70;;;;;;5030021;28;20864;-65
2022/10/07 07:44:24;;;;;;;;;;;8.10;83.90;;;;;;5024886;28;20004;-66
2022/10/07 07:46:54;;;;;;;;;;;8.10;84.20;;;;;;5032515;28;20014;-66
2022/10/07 07:49:23;;;;;;;;;;;8.20;83.40;;;;;;5027923;28;19941;-66
2022/10/07 07:51:50;;;;;;;;;;;8.20;83.30;;;;;;5035251;28;20031;-64
2022/10/07 07:54:24;;;;;;;;;;;8.10;83.60;;;;;;5042922;28;19983;-64
2022/10/07 07:56:53;;;;;;;;;;;8.10;83.60;;;;;;5022326;28;19990;-66
2022/10/07 07:59:22;;;;;;;;;;;8.20;83.90;;;;;;5037395;28;19929;-64
2022/10/07 08:01:51;;;;;;;;;;;8.20;84.10;;;;;;5046270;28;19924;-73
2022/10/07 08:04:18;;;;;;;;;;;8.30;84.60;;;;;;5020355;28;19974;-72
2022/10/07 08:06:45;;;;;;;;;;;8.30;84.10;;;;;;5042429;28;20028;-73
2022/10/07 08:09:12;;;;;;;;;;;8.40;84.70;;;;;;5039411;28;19925;-73
2022/10/07 08:11:44;;;;;;;;;;;8.60;84.90;;;;;;5039089;28;20279;-71
2022/10/07 08:14:12;;;;;;;;;;;8.60;84.70;;;;;;5034397;28;20399;-72
2022/10/07 08:16:42;;;;;;;;;;;8.80;85.70;;;;;;5019553;28;20337;-73
2022/10/07 08:19:09;;;;;;;;;;;8.90;85.40;;;;;;5039360;28;20373;-73
2022/10/07 08:21:36;;;;;;;;;;;9.10;85.30;;;;;;5038485;28;20390;-72
2022/10/07 08:24:04;;;;;;;;;;;9.20;84.80;;;;;;5026597;28;19999;-72
2022/10/07 08:26:36;;;;;;;;;;;9.30;85.30;;;;;;5016226;28;19924;-71
2022/10/07 08:29:05;;;;;;;;;;;9.40;85.30;;;;;;5027311;28;19929;-73
2022/10/07 08:31:32;;;;;;;;;;;9.60;85.30;;;;;;5037873;28;19959;-73
2022/10/07 08:34:01;;;;;;;;;;;9.70;85.20;;;;;;5042132;28;19972;-72
2022/10/07 08:36:31;;;;;;;;;;;9.70;85.00;;;;;;5033832;28;20445;-71
2022/10/07 08:38:58;;;;;;;;;;;9.90;85.40;;;;;;5044074;28;20290;-73
2022/10/07 08:41:36;;;;;;;;;;;10.00;85.50;;;;;;5047067;28;20006;-73
2022/10/07 08:44:07;;;;;;;;;;;10.10;85.20;;;;;;5039168;28;20406;-72
2022/10/07 08:46:36;;;;;;;;;;;10.20;85.10;;;;;;5036136;28;20291;-73
2022/10/07 08:49:05;;;;;;;;;;;10.30;85.50;;;;;;5043033;28;19928;-71
2022/10/07 08:51:37;;;;;;;;;;;10.40;85.10;;;;;;5038407;28;19936;-72
2022/10/07 08:54:05;;;;;;;;;;;10.60;85.10;;;;;;5020809;28;19937;-72
2022/10/07 08:56:32;;;;;;;;;;;10.70;84.70;;;;;;5020106;28;20024;-71
2022/10/07 08:59:04;;;;;;;;;;;10.80;84.70;;;;;;5023270;28;20321;-73
2022/10/07 09:01:36;;;;;;;;;;;11.00;84.20;;;;;;5021588;28;19939;-72
2022/10/07 09:04:09;;;;;;;;;;;11.10;84.80;;;;;;5024268;28;20351;-71
2022/10/07 09:06:38;;;;;;;;;;;11.20;84.20;;;;;;5022812;28;19968;-72
2022/10/07 09:09:10;;;;;;;;;;;11.40;84.00;;;;;;5025670;28;19935;-72
2022/10/07 09:11:40;;;;;;;;;;;11.60;83.10;;;;;;5019883;28;19931;-72
2022/10/07 09:14:14;;;;;;;;;;;11.70;83.10;;;;;;5026726;28;19936;-71
2022/10/07 09:16:43;;;;;;;;;;;11.80;83.00;;;;;;5017078;28;19933;-72
2022/10/07 09:19:15;;;;;;;;;;;11.90;82.40;;;;;;5019646;28;19925;-70
2022/10/07 09:21:45;;;;;;;;;;;12.00;82.50;;;;;;5022444;28;19952;-72
2022/10/07 09:24:16;;;;;;;;;;;12.20;82.20;;;;;;5019189;28;19925;-73
2022/10/07 09:26:42;;;;;;;;;;;12.30;82.20;;;;;;5020965;28;19929;-72
2022/10/07 09:29:09;;;;;;;;;;;12.30;81.60;;;;;;5016416;28;19929;-71
2022/10/07 09:31:36;;;;;;;;;;;12.40;81.40;;;;;;5017715;28;19929;-72
2022/10/07 09:34:03;;;;;;;;;;;12.50;81.70;;;;;;5030064;28;20367;-73
2022/10/07 09:36:31;;;;;;;;;;;12.60;81.30;;;;;;5028564;28;19933;-72
2022/10/07 09:39:15;;;;;;;;;;;12.70;81.10;;;;;;5040329;28;19947;-73
2022/10/07 09:41:42;;;;;;;;;;;12.80;80.70;;;;;;5041530;28;20421;-72
2022/10/07 09:44:21;;;;;;;;;;;12.90;80.50;;;;;;5040826;28;19959;-73
2022/10/07 09:46:48;;;;;;;;;;;13.00;80.50;;;;;;5041304;28;20819;-72
2022/10/07 09:49:35;;;;;;;;;;;13.20;80.20;;;;;;5034679;28;20409;-71
2022/10/07 09:52:05;;;;;;;;;;;13.20;80.10;;;;;;5035964;28;19940;-72
2022/10/07 09:54:33;;;;;;;;;;;13.30;80.20;;;;;;5044885;28;19925;-73
2022/10/07 09:57:00;;;;;;;;;;;13.40;80.10;;;;;;5041742;28;19928;-73
2022/10/07 09:59:33;;;;;;;;;;;13.40;79.90;;;;;;5037776;28;19986;-71
2022/10/07 10:02:01;;;;;;;;;;;13.50;79.90;;;;;;5029078;28;19929;-72
2022/10/07 10:04:29;;;;;;;;;;;13.60;79.30;;;;;;5036891;28;20379;-72
2022/10/07 10:06:59;;;;;;;;;;;13.60;79.20;;;;;;5040054;28;19925;-71
2022/10/07 10:09:27;;;;;;;;;;;13.80;79.10;;;;;;5022476;28;19929;-71
2022/10/07 10:12:02;;;;;;;;;;;13.80;78.90;;;;;;5032380;28;20351;-72
2022/10/07 10:14:35;;;;;;;;;;;13.90;78.90;;;;;;5043103;28;19925;-72
2022/10/07 10:17:02;;;;;;;;;;;13.90;78.60;;;;;;5044503;28;20011;-69
2022/10/07 10:19:29;;;;;;;;;;;14.10;78.10;;;;;;5037255;28;19929;-72
2022/10/07 10:21:57;;;;;;;;;;;14.10;78.00;;;;;;5045566;28;19924;-71
2022/10/07 10:27:09;;;;;;;;;;;14.20;78.30;;;;;;5040786;28;19931;-72
2022/10/07 10:29:46;;;;;;;;;;;14.20;78.10;;;;;;5043902;28;19929;-71
2022/10/07 10:32:22;;;;;;;;;;;14.30;77.80;;;;;;5042904;28;19928;-71
2022/10/07 10:34:52;;;;;;;;;;;14.30;77.70;;;;;;5037134;28;19935;-72
2022/10/07 10:37:20;;;;;;;;;;;14.50;77.40;;;;;;5046962;28;20281;-71
2022/10/07 10:39:56;;;;;;;;;;;14.50;77.50;;;;;;5035445;28;19933;-70
2022/10/07 10:42:27;;;;;;;;;;;14.60;77.60;;;;;;5039286;28;19925;-73
2022/10/07 10:45:02;;;;;;;;;;;14.60;77.20;;;;;;5022658;28;19925;-71
2022/10/07 10:47:35;;;;;;;;;;;14.60;77.40;;;;;;5023233;28;19936;-72
2022/10/07 10:50:10;;;;;;;;;;;14.70;77.30;;;;;;5025762;28;19932;-71
2022/10/07 10:52:43;;;;;;;;;;;14.80;77.60;;;;;;5024937;28;19932;-72
2022/10/07 10:55:20;;;;;;;;;;;14.80;77.30;;;;;;5023049;28;19988;-72
2022/10/07 10:57:55;;;;;;;;;;;14.80;77.10;;;;;;5023843;28;20021;-72
2022/10/07 11:00:22;;;;;;;;;;;14.80;77.20;;;;;;5020357;28;19933;-72
2022/10/07 11:02:58;;;;;;;;;;;14.90;77.50;;;;;;5022715;28;20383;-71
2022/10/07 11:05:25;;;;;;;;;;;14.90;77.50;;;;;;5017530;28;20373;-72
2022/10/07 11:07:55;;;;;;;;;;;15.00;77.40;;;;;;5022841;28;19929;-72
2022/10/07 11:10:24;;;;;;;;;;;15.00;77.20;;;;;;5022183;28;19979;-71
2022/10/07 11:12:55;;;;;;;;;;;15.00;77.10;;;;;;5024315;28;19971;-73
2022/10/07 11:15:25;;;;;;;;;;;15.10;76.80;;;;;;5025178;28;20009;-71
2022/10/07 11:17:53;;;;;;;;;;;15.10;76.60;;;;;;5024877;28;20053;-74
2022/10/07 11:20:22;;;;;;;;;;;15.10;76.70;;;;;;5021465;28;19976;-73
2022/10/07 11:22:52;;;;;;;;;;;15.10;76.40;;;;;;5024706;28;20395;-71
2022/10/07 11:25:24;;;;;;;;;;;15.20;76.20;;;;;;5020040;28;20089;-73
2022/10/07 11:27:53;;;;;;;;;;;15.20;76.30;;;;;;5024506;28;20461;-72
2022/10/07 11:30:21;;;;;;;;;;;15.30;76.50;;;;;;5015231;28;19936;-73
2022/10/07 11:32:54;;;;;;;;;;;15.30;76.40;;;;;;5019411;28;20013;-72
2022/10/07 11:35:24;;;;;;;;;;;15.30;76.70;;;;;;5041878;28;20011;-73
2022/10/07 11:37:54;;;;;;;;;;;15.30;76.80;;;;;;5041147;28;19978;-73
2022/10/07 11:40:23;;;;;;;;;;;15.30;77.00;;;;;;5038693;28;19932;-73
2022/10/07 11:42:51;;;;;;;;;;;15.40;76.80;;;;;;5048245;28;19978;-74
2022/10/07 11:45:21;;;;;;;;;;;15.50;76.50;;;;;;5038195;28;19933;-73
2022/10/07 11:47:54;;;;;;;;;;;15.50;76.40;;;;;;5044859;28;19933;-74
2022/10/07 11:50:22;;;;;;;;;;;15.50;76.50;;;;;;5037948;28;19931;-74
2022/10/07 11:52:51;;;;;;;;;;;15.40;76.30;;;;;;5025938;28;19928;-73
2022/10/07 11:55:21;;;;;;;;;;;15.50;76.40;;;;;;5047438;28;19947;-74
2022/10/07 11:57:52;;;;;;;;;;;15.60;76.30;;;;;;5035263;28;20017;-73
2022/10/07 12:00:24;;;;;;;;;;;15.60;75.90;;;;;;5035474;28;19929;-75
2022/10/07 12:02:50;;;;;;;;;;;15.60;76.20;;;;;;5045107;28;20026;-75
2022/10/07 12:05:36;;;;;;;;;;;15.70;75.80;;;;;;5044944;28;19929;-71
2022/10/07 12:08:17;;;;;;;;;;;15.80;75.80;;;;;;5034573;28;19925;-73
2022/10/07 12:10:43;;;;;;;;;;;15.70;76.20;;;;;;5036120;28;20032;-73
2022/10/07 12:13:36;;;;;;;;;;;15.80;75.90;;;;;;5039584;28;19935;-74
2022/10/07 12:16:18;;;;;;;;;;;16.00;75.50;;;;;;5037571;28;20401;-75
2022/10/07 12:19:06;;;;;;;;;;;16.10;75.60;;;;;;5038475;28;19931;-75
2022/10/07 12:22:07;;;;;;;;;;;16.00;75.60;;;;;;5042930;28;19932;-74
2022/10/07 12:24:34;;;;;;;;;;;16.10;75.30;;;;;;5020285;28;19931;-73
2022/10/07 12:27:07;;;;;;;;;;;16.10;75.60;;;;;;5018003;28;20438;-73
2022/10/07 12:29:44;;;;;;;;;;;16.00;75.20;;;;;;5019547;28;19925;-74
2022/10/07 12:32:26;;;;;;;;;;;16.10;75.60;;;;;;5018394;28;19933;-73
2022/10/07 12:34:54;;;;;;;;;;;16.00;75.70;;;;;;5021679;28;19999;-73
2022/10/07 12:37:45;;;;;;;;;;;16.00;76.30;;;;;;5018548;28;20395;-74
2022/10/07 12:40:14;;;;;;;;;;;16.00;76.40;;;;;;5020680;28;19940;-72
2022/10/07 12:42:46;;;;;;;;;;;16.10;75.60;;;;;;5038448;28;19975;-74
2022/10/07 12:45:13;;;;;;;;;;;16.20;75.40;;;;;;5042601;28;20029;-73
2022/10/07 12:47:40;;;;;;;;;;;16.30;74.80;;;;;;5045246;28;19928;-72
2022/10/07 12:50:11;;;;;;;;;;;16.30;75.50;;;;;;5040530;28;19932;-72
2022/10/07 12:52:42;;;;;;;;;;;16.30;75.50;;;;;;5031969;28;20043;-74
2022/10/07 12:55:10;;;;;;;;;;;16.30;75.50;;;;;;5029703;28;19964;-73
2022/10/07 12:57:37;;;;;;;;;;;16.20;75.60;;;;;;5036270;28;19933;-73
2022/10/07 13:00:06;;;;;;;;;;;16.30;75.60;;;;;;5037405;28;20302;-73
2022/10/07 13:02:58;;;;;;;;;;;16.30;75.50;;;;;;5033952;28;19972;-74
2022/10/07 13:05:43;;;;;;;;;;;16.40;75.10;;;;;;5033155;28;19941;-71
2022/10/07 13:08:28;;;;;;;;;;;16.20;75.40;;;;;;5032795;28;19925;-72
2022/10/07 13:11:03;;;;;;;;;;;16.20;75.80;;;;;;5044485;28;19929;-72
2022/10/07 13:13:32;;;;;;;;;;;16.20;76.20;;;;;;5023446;28;19940;-75
2022/10/07 13:16:02;;;;;;;;;;;16.20;76.00;;;;;;5022500;28;19929;-73
2022/10/07 13:18:33;;;;;;;;;;;16.20;75.90;;;;;;5023654;28;19929;-73
2022/10/07 13:21:06;;;;;;;;;;;16.30;75.70;;;;;;5024076;28;19932;-74
2022/10/07 13:23:33;;;;;;;;;;;16.20;76.00;;;;;;5016013;28;21032;-74
2022/10/07 13:26:02;;;;;;;;;;;16.20;75.80;;;;;;5017547;28;19929;-74
2022/10/07 13:28:35;;;;;;;;;;;16.20;76.10;;;;;;5009706;28;20681;-72
2022/10/07 13:31:12;;;;;;;;;;;16.20;75.90;;;;;;5022636;28;19987;-72
2022/10/07 13:33:38;;;;;;;;;;;16.30;75.90;;;;;;5017820;28;19929;-74
2022/10/07 13:36:06;;;;;;;;;;;16.20;75.90;;;;;;5033597;28;20495;-73
2022/10/07 13:38:33;;;;;;;;;;;16.20;76.10;;;;;;5028585;28;19929;-74
2022/10/07 13:41:03;;;;;;;;;;;16.20;76.20;;;;;;5017735;28;19928;-74
2022/10/07 13:43:31;;;;;;;;;;;16.10;76.50;;;;;;5044410;28;19932;-75
2022/10/07 13:45:58;;;;;;;;;;;16.10;76.30;;;;;;5047560;28;19964;-73
2022/10/07 13:48:26;;;;;;;;;;;16.10;76.40;;;;;;5049980;28;19924;-73
2022/10/07 13:50:55;;;;;;;;;;;16.10;76.30;;;;;;5046220;28;19932;-74
2022/10/07 13:53:24;;;;;;;;;;;16.10;76.50;;;;;;5050027;28;19924;-73
2022/10/07 13:56:03;;;;;;;;;;;16.10;76.50;;;;;;5051652;28;19935;-73
2022/10/07 13:58:31;;;;;;;;;;;16.10;76.80;;;;;;5045005;28;19936;-75
2022/10/07 14:00:58;;;;;;;;;;;16.10;76.80;;;;;;5046490;28;20391;-75
2022/10/07 14:03:25;;;;;;;;;;;16.20;76.70;;;;;;5048161;28;19929;-73
2022/10/07 14:05:53;;;;;;;;;;;16.20;76.60;;;;;;5045845;28;20008;-74
2022/10/07 14:08:21;;;;;;;;;;;16.20;76.70;;;;;;5033021;28;19991;-73
2022/10/07 14:10:52;;;;;;;;;;;16.10;76.50;;;;;;5037948;28;19940;-75
2022/10/07 14:13:19;;;;;;;;;;;16.10;76.90;;;;;;5048243;28;19955;-73
2022/10/07 14:15:49;;;;;;;;;;;16.10;77.00;;;;;;5041452;28;19925;-75
2022/10/07 14:18:16;;;;;;;;;;;16.20;76.90;;;;;;5048815;28;19925;-73
2022/10/07 14:20:48;;;;;;;;;;;16.20;77.00;;;;;;5049023;28;19932;-72
2022/10/07 14:23:17;;;;;;;;;;;16.20;77.00;;;;;;5046813;28;19933;-74
2022/10/07 14:25:51;;;;;;;;;;;16.20;77.10;;;;;;5037902;28;19925;-73
2022/10/07 14:28:18;;;;;;;;;;;16.10;77.00;;;;;;5042140;28;20313;-75
2022/10/07 14:36:33;;;;;;;;;;;16.30;77.20;;;;;;5046032;28;19933;-73
2022/10/07 14:39:02;;;;;;;;;;;16.30;77.10;;;;;;5048178;28;19933;-72
2022/10/07 14:41:30;;;;;;;;;;;16.20;77.10;;;;;;5048534;28;19960;-74
2022/10/07 14:43:58;;;;;;;;;;;16.20;77.00;;;;;;5039381;28;20014;-74
2022/10/07 14:46:26;;;;;;;;;;;16.20;77.30;;;;;;5048106;28;19924;-74
2022/10/07 14:48:53;;;;;;;;;;;16.20;77.20;;;;;;5041630;28;19925;-71
2022/10/07 14:51:21;;;;;;;;;;;16.20;77.00;;;;;;5041672;28;19925;-74
2022/10/07 14:53:50;;;;;;;;;;;16.20;76.90;;;;;;5046735;28;20499;-73
2022/10/07 14:56:21;;;;;;;;;;;16.20;77.00;;;;;;5044687;28;19928;-75
2022/10/07 14:58:48;;;;;;;;;;;16.20;77.20;;;;;;5049956;28;19933;-74